createdAt,value
2022-10-19T00:00:25.346Z,9.13
2022-10-19T00:02:51.908Z,9.50
2022-10-19T00:05:18.451Z,10.25
2022-10-19T00:07:44.918Z,9.88
2022-10-19T00:10:11.651Z,9.95
2022-10-19T00:12:38.823Z,7.78
2022-10-19T00:15:06.501Z,8.95
2022-10-19T00:17:34.776Z,8.25
2022-10-19T00:20:01.430Z,9.82
2022-10-19T00:22:27.867Z,6.82
2022-10-19T00:24:56.858Z,7.32
2022-10-19T00:27:23.355Z,8.05
2022-10-19T00:29:49.748Z,6.10
2022-10-19T00:32:16.146Z,6.05
2022-10-19T00:34:42.615Z,10.18
2022-10-19T00:37:09.067Z,8.30
2022-10-19T00:39:35.482Z,10.00
2022-10-19T00:42:01.943Z,16.60
2022-10-19T00:44:28.447Z,12.95
2022-10-19T00:46:59.082Z,11.48
2022-10-19T00:49:33.203Z,10.02
2022-10-19T00:52:06.114Z,9.15
2022-10-19T00:54:33.814Z,10.95
2022-10-19T00:57:00.570Z,8.60
2022-10-19T00:59:31.741Z,10.57
2022-10-19T01:01:59.011Z,9.32
2022-10-19T01:04:27.089Z,8.40
2022-10-19T01:06:54.818Z,9.32
2022-10-19T01:09:21.418Z,10.70
2022-10-19T01:11:53.758Z,12.38
2022-10-19T01:14:38.474Z,10.90
2022-10-19T01:17:36.151Z,16.08
2022-10-19T01:20:05.824Z,11.27
2022-10-19T01:22:46.680Z,10.77
2022-10-19T01:28:29.722Z,6.78
2022-10-19T01:31:02.068Z,9.38
2022-10-19T01:33:34.576Z,8.07
2022-10-19T01:36:26.986Z,8.18
2022-10-19T01:39:30.620Z,7.90
2022-10-19T01:42:01.428Z,8.27
2022-10-19T01:44:31.363Z,7.95
2022-10-19T01:47:07.558Z,7.10
2022-10-19T01:49:51.189Z,8.90
2022-10-19T01:52:20.712Z,6.70
2022-10-19T01:54:51.257Z,6.72
2022-10-19T01:57:23.948Z,9.95
2022-10-19T01:59:51.474Z,7.15
2022-10-19T02:02:19.825Z,8.07
2022-10-19T02:04:48.963Z,8.43
2022-10-19T02:07:16.252Z,13.93
2022-10-19T02:09:42.740Z,10.43
2022-10-19T02:12:11.158Z,6.63
2022-10-19T02:14:43.010Z,6.55
2022-10-19T02:17:14.150Z,6.93
2022-10-19T02:19:42.854Z,8.82
2022-10-19T02:24:36.161Z,8.88
2022-10-19T02:27:05.556Z,8.70
2022-10-19T02:29:34.417Z,10.77
2022-10-19T02:32:01.413Z,9.10
2022-10-19T02:34:28.192Z,6.75
2022-10-19T02:36:55.880Z,7.88
2022-10-19T02:39:22.821Z,8.40
2022-10-19T02:41:57.363Z,7.07
2022-10-19T02:44:31.724Z,7.57
2022-10-19T02:47:06.672Z,7.65
2022-10-19T02:49:35.328Z,7.63
2022-10-19T02:52:05.703Z,6.45
2022-10-19T02:54:32.601Z,9.48
2022-10-19T02:56:59.355Z,8.02
2022-10-19T02:59:26.199Z,9.23
2022-10-19T03:01:52.836Z,8.85
2022-10-19T03:04:19.439Z,7.07
2022-10-19T03:06:45.965Z,6.63
2022-10-19T03:09:12.403Z,7.13
2022-10-19T03:11:38.974Z,6.47
2022-10-19T03:14:05.394Z,6.63
2022-10-19T03:16:31.868Z,7.20
2022-10-19T03:18:58.392Z,6.43
2022-10-19T03:21:24.792Z,7.20
2022-10-19T03:23:51.250Z,6.50
2022-10-19T03:26:18.268Z,7.82
2022-10-19T03:28:46.926Z,7.28
2022-10-19T03:31:13.425Z,6.57
2022-10-19T03:33:39.935Z,7.45
2022-10-19T03:36:34.265Z,6.25
2022-10-19T03:39:03.942Z,6.97
2022-10-19T03:41:33.054Z,9.48
2022-10-19T03:46:32.199Z,6.35
2022-10-19T03:48:58.665Z,6.65
2022-10-19T03:51:28.179Z,7.03
2022-10-19T03:53:56.412Z,6.57
2022-10-19T03:56:25.040Z,5.72
2022-10-19T04:01:45.740Z,5.72
2022-10-19T04:04:15.228Z,6.63
2022-10-19T04:06:45.334Z,6.07
2022-10-19T04:09:14.622Z,8.15
2022-10-19T04:11:42.149Z,7.55
2022-10-19T04:16:36.195Z,8.40
2022-10-19T04:19:02.741Z,6.53
2022-10-19T04:21:31.693Z,7.32
2022-10-19T04:24:01.175Z,5.57
2022-10-19T04:26:28.382Z,8.07
2022-10-19T04:28:57.809Z,7.43
2022-10-19T04:31:24.901Z,6.43
2022-10-19T04:33:51.354Z,7.13
2022-10-19T04:36:17.918Z,6.90
2022-10-19T04:38:44.437Z,6.63
2022-10-19T04:41:13.941Z,7.35
2022-10-19T04:43:40.750Z,11.95
2022-10-19T04:46:13.306Z,6.97
2022-10-19T04:48:40.779Z,6.45
2022-10-19T04:51:08.011Z,6.15
2022-10-19T04:53:35.405Z,6.18
2022-10-19T04:56:05.926Z,8.88
2022-10-19T04:58:32.480Z,7.38
2022-10-19T05:00:59.081Z,6.68
2022-10-19T05:03:25.562Z,7.80
2022-10-19T05:05:51.984Z,6.68
2022-10-19T05:08:18.461Z,6.80
2022-10-19T05:10:47.649Z,6.32
2022-10-19T05:13:14.870Z,12.23
2022-10-19T05:15:41.478Z,7.93
2022-10-19T05:18:08.028Z,5.90
2022-10-19T05:20:34.545Z,7.32
2022-10-19T05:23:06.153Z,6.13
2022-10-19T05:25:33.826Z,6.00
2022-10-19T05:28:00.313Z,7.47
2022-10-19T05:30:26.840Z,5.47
2022-10-19T05:32:53.292Z,5.95
2022-10-19T05:35:22.418Z,6.22
2022-10-19T05:37:49.270Z,7.25
2022-10-19T05:40:15.795Z,7.50
2022-10-19T05:42:42.235Z,6.13
2022-10-19T05:45:09.091Z,5.97
2022-10-19T05:47:35.808Z,6.82
2022-10-19T05:50:02.802Z,6.40
2022-10-19T05:52:29.516Z,5.93
2022-10-19T05:54:58.249Z,6.28
2022-10-19T05:57:25.574Z,5.53
2022-10-19T05:59:52.053Z,5.80
2022-10-19T06:02:20.795Z,6.57
2022-10-19T06:07:13.670Z,7.10
2022-10-19T06:09:40.238Z,8.15
2022-10-19T06:12:06.812Z,5.75
2022-10-19T06:14:33.342Z,6.20
2022-10-19T06:16:59.807Z,7.43
2022-10-19T06:19:26.334Z,8.43
2022-10-19T06:21:52.809Z,6.63
2022-10-19T06:24:19.218Z,8.15
2022-10-19T06:26:45.767Z,6.88
2022-10-19T06:29:12.363Z,4.93
2022-10-19T06:31:38.937Z,6.63
2022-10-19T06:34:05.788Z,7.30
2022-10-19T06:36:33.013Z,6.35
2022-10-19T06:39:01.582Z,7.00
2022-10-19T06:41:30.598Z,5.72
2022-10-19T06:43:57.257Z,6.05
2022-10-19T06:46:25.990Z,6.60
2022-10-19T06:51:20.730Z,5.88
2022-10-19T06:53:47.239Z,9.25
2022-10-19T06:56:14.020Z,6.07
2022-10-19T06:58:40.763Z,7.32
2022-10-19T07:01:10.119Z,8.27
2022-10-19T07:03:37.286Z,5.63
2022-10-19T07:06:06.937Z,7.18
2022-10-19T07:08:34.908Z,8.77
2022-10-19T07:11:05.157Z,7.78
2022-10-19T07:13:31.841Z,7.32
2022-10-19T07:16:05.499Z,6.95
2022-10-19T07:18:33.446Z,7.97
2022-10-19T07:21:01.989Z,7.50
2022-10-19T07:23:29.735Z,10.90
2022-10-19T07:26:01.460Z,7.45
2022-10-19T07:28:29.606Z,7.78
2022-10-19T07:30:56.431Z,5.90
2022-10-19T07:33:23.735Z,9.45
2022-10-19T07:35:50.333Z,8.35
2022-10-19T07:38:16.863Z,7.63
2022-10-19T07:40:46.423Z,12.88
2022-10-19T07:43:14.007Z,7.95
2022-10-19T07:45:40.543Z,6.43
2022-10-19T07:48:07.202Z,9.88
2022-10-19T07:50:33.809Z,7.35
2022-10-19T07:53:00.308Z,8.13
2022-10-19T07:55:26.740Z,8.60
2022-10-19T07:57:53.262Z,7.50
2022-10-19T08:00:19.725Z,8.73
2022-10-19T08:02:57.721Z,8.55
2022-10-19T08:05:26.564Z,11.32
2022-10-19T08:07:53.030Z,11.30
2022-10-19T08:10:19.517Z,9.35
2022-10-19T08:12:46.053Z,8.88
2022-10-19T08:15:12.558Z,10.00
2022-10-19T08:17:39.807Z,8.52
2022-10-19T08:20:07.721Z,7.53
2022-10-19T08:22:34.644Z,11.52
2022-10-19T08:25:04.734Z,7.93
2022-10-19T08:27:31.288Z,7.63
2022-10-19T08:29:57.843Z,10.40
2022-10-19T08:32:24.395Z,8.85
2022-10-19T08:34:50.818Z,10.55
2022-10-19T08:37:26.410Z,8.43
2022-10-19T08:40:04.283Z,9.48
2022-10-19T08:42:59.875Z,9.52
2022-10-19T08:45:37.291Z,6.88
2022-10-19T08:48:15.261Z,9.60
2022-10-19T08:50:45.263Z,8.27
2022-10-19T08:53:59.778Z,7.55
2022-10-19T08:56:50.649Z,7.63
2022-10-19T08:59:39.020Z,8.18
2022-10-19T09:02:38.060Z,7.53
2022-10-19T09:07:45.531Z,8.27
2022-10-19T09:10:17.849Z,8.93
2022-10-19T09:13:07.540Z,7.07
2022-10-19T09:15:41.476Z,8.00
2022-10-19T09:18:30.803Z,11.35
2022-10-19T09:21:08.551Z,9.38
2022-10-19T09:23:39.802Z,9.10
2022-10-19T09:26:14.934Z,8.48
2022-10-19T09:28:44.347Z,11.60
2022-10-19T09:31:19.508Z,10.55
2022-10-19T09:33:55.523Z,7.13
2022-10-19T09:36:33.229Z,8.77
2022-10-19T09:39:12.781Z,8.90
2022-10-19T09:41:55.101Z,9.63
2022-10-19T09:44:23.239Z,7.28
2022-10-19T09:47:19.981Z,7.60
2022-10-19T09:49:48.266Z,8.52
2022-10-19T09:52:34.179Z,10.35
2022-10-19T09:55:07.250Z,7.15
2022-10-19T09:57:42.926Z,9.40
2022-10-19T10:00:19.223Z,8.85
2022-10-19T10:02:50.735Z,6.63
2022-10-19T10:05:17.338Z,8.55
2022-10-19T10:07:44.507Z,6.63
2022-10-19T10:10:28.072Z,6.15
2022-10-19T10:12:59.756Z,5.30
2022-10-19T10:15:29.875Z,6.50
2022-10-19T10:17:57.228Z,5.10
2022-10-19T10:20:32.604Z,4.22
2022-10-19T10:23:04.652Z,6.32
2022-10-19T10:25:34.540Z,6.97
2022-10-19T10:28:15.192Z,4.82
2022-10-19T10:30:42.516Z,6.40
2022-10-19T10:33:33.186Z,5.70
2022-10-19T10:36:08.399Z,9.10
2022-10-19T10:38:44.876Z,4.90
2022-10-19T10:41:17.689Z,6.18
2022-10-19T10:44:04.994Z,6.30
2022-10-19T10:46:37.131Z,5.53
2022-10-19T10:49:06.866Z,4.32
2022-10-19T10:51:59.648Z,5.40
2022-10-19T10:54:29.991Z,4.45
2022-10-19T10:57:16.509Z,4.72
2022-10-19T11:00:02.238Z,6.97
2022-10-19T11:02:43.865Z,6.35
2022-10-19T11:05:17.875Z,5.97
2022-10-19T11:07:47.707Z,8.20
2022-10-19T11:10:25.505Z,8.00
2022-10-19T11:12:56.284Z,7.72
2022-10-19T11:15:27.869Z,5.53
2022-10-19T11:17:58.064Z,5.88
2022-10-19T11:20:29.583Z,6.32
2022-10-19T11:23:10.551Z,5.68
2022-10-19T11:25:49.377Z,6.32
2022-10-19T11:28:49.561Z,6.65
2022-10-19T11:31:24.675Z,5.35
2022-10-19T11:34:16.376Z,6.03
2022-10-19T11:36:58.152Z,4.82
2022-10-19T11:39:42.773Z,6.35
2022-10-19T11:42:26.388Z,3.97
2022-10-19T11:45:11.552Z,7.28
2022-10-19T11:48:09.456Z,5.57
2022-10-19T11:50:49.736Z,5.57
2022-10-19T11:54:00.233Z,5.05
2022-10-19T11:57:02.218Z,5.55
2022-10-19T12:00:08.644Z,6.00
2022-10-19T12:03:03.495Z,6.53
2022-10-19T12:05:56.219Z,6.18
2022-10-19T12:08:28.907Z,5.97
2022-10-19T12:10:55.337Z,5.72
2022-10-19T12:14:00.651Z,6.20
2022-10-19T12:16:53.061Z,6.10
2022-10-19T12:19:32.076Z,7.95
2022-10-19T12:22:01.590Z,8.00
2022-10-19T12:24:29.847Z,6.55
2022-10-19T12:26:57.686Z,7.95
2022-10-19T12:29:32.763Z,6.60
2022-10-19T12:32:00.987Z,7.15
2022-10-19T12:37:19.945Z,6.85
2022-10-19T12:40:08.126Z,6.25
2022-10-19T12:42:52.965Z,8.25
2022-10-19T12:45:25.575Z,6.30
2022-10-19T12:48:14.355Z,6.78
2022-10-19T12:50:50.021Z,7.05
2022-10-19T12:55:59.867Z,6.32
2022-10-19T12:58:29.399Z,5.85
2022-10-19T13:01:01.025Z,5.05
2022-10-19T13:03:36.381Z,5.57
2022-10-19T13:06:12.712Z,5.45
2022-10-19T13:08:56.189Z,6.22
2022-10-19T13:11:23.291Z,6.97
2022-10-19T13:14:06.575Z,6.78
2022-10-19T13:16:40.878Z,6.50
2022-10-19T13:21:54.884Z,6.00
2022-10-19T13:24:24.301Z,8.88
2022-10-19T13:26:59.897Z,7.00
2022-10-19T13:29:28.864Z,7.65
2022-10-19T13:31:55.494Z,5.72
2022-10-19T13:34:25.106Z,4.63
2022-10-19T13:37:02.823Z,8.18
2022-10-19T13:39:30.100Z,6.20
2022-10-19T13:41:57.398Z,5.82
2022-10-19T13:44:31.063Z,7.40
2022-10-19T13:47:12.671Z,6.20
2022-10-19T13:50:02.856Z,5.63
2022-10-19T13:52:41.523Z,6.60
2022-10-19T13:55:37.274Z,4.88
2022-10-19T13:58:51.399Z,5.57
2022-10-19T14:01:53.012Z,5.78
2022-10-19T14:04:28.952Z,6.93
2022-10-19T14:07:13.991Z,4.65
2022-10-19T14:10:06.502Z,7.97
2022-10-19T14:12:36.809Z,4.53
2022-10-19T14:15:19.835Z,3.85
2022-10-19T14:17:46.434Z,6.88
2022-10-19T14:20:32.896Z,6.63
2022-10-19T14:25:57.057Z,5.38
2022-10-19T14:28:24.680Z,6.32
2022-10-19T14:30:57.193Z,6.00
2022-10-19T14:33:25.519Z,8.32
2022-10-19T14:35:52.790Z,5.22
2022-10-19T14:38:25.766Z,6.68
2022-10-19T14:40:52.269Z,5.60
2022-10-19T14:43:28.847Z,6.03
2022-10-19T14:46:07.300Z,9.35
2022-10-19T14:48:35.944Z,4.35
2022-10-19T14:51:09.971Z,4.35
2022-10-19T14:53:39.865Z,4.55
2022-10-19T14:56:15.314Z,5.80
2022-10-19T14:58:54.119Z,4.78
2022-10-19T15:01:21.539Z,4.82
2022-10-19T15:03:49.871Z,5.47
2022-10-19T15:06:30.106Z,4.80
2022-10-19T15:09:04.268Z,5.30
2022-10-19T15:11:37.584Z,4.00
2022-10-19T15:14:09.745Z,6.65
2022-10-19T15:16:57.475Z,7.28
2022-10-19T15:19:41.197Z,8.07
2022-10-19T15:22:20.285Z,5.85
2022-10-19T15:24:55.805Z,4.93
2022-10-19T15:27:28.830Z,5.35
2022-10-19T15:30:18.676Z,6.75
2022-10-19T15:32:51.444Z,4.80
2022-10-19T15:35:23.259Z,5.47
2022-10-19T15:37:50.779Z,5.10
2022-10-19T15:40:25.825Z,6.30
2022-10-19T15:42:52.521Z,6.45
2022-10-19T15:45:38.112Z,6.47
2022-10-19T15:48:10.368Z,5.75
2022-10-19T15:50:42.475Z,6.93
2022-10-19T15:53:08.909Z,5.45
2022-10-19T15:55:35.508Z,6.88
2022-10-19T15:58:02.307Z,4.20
2022-10-19T16:00:29.988Z,6.88
2022-10-19T16:02:56.442Z,5.97
2022-10-19T16:05:23.218Z,6.50
2022-10-19T16:07:50.175Z,5.22
2022-10-19T16:10:20.438Z,6.82
2022-10-19T16:12:47.102Z,6.80
2022-10-19T16:15:22.237Z,7.72
2022-10-19T16:17:59.926Z,7.68
2022-10-19T16:20:28.894Z,7.72
2022-10-19T16:22:55.483Z,5.43
2022-10-19T16:25:22.015Z,6.75
2022-10-19T16:27:48.666Z,6.40
2022-10-19T16:30:15.086Z,8.05
2022-10-19T16:35:10.040Z,8.13
2022-10-19T16:37:37.140Z,7.53
2022-10-19T16:40:05.353Z,8.93
2022-10-19T16:42:32.120Z,9.15
2022-10-19T16:44:58.929Z,8.48
2022-10-19T16:47:25.545Z,7.63
2022-10-19T16:50:01.153Z,7.53
2022-10-19T16:52:29.305Z,12.85
2022-10-19T16:54:56.759Z,8.75
2022-10-19T16:57:23.366Z,8.93
2022-10-19T17:02:23.098Z,7.65
2022-10-19T17:04:49.717Z,9.23
2022-10-19T17:07:16.221Z,10.40
2022-10-19T17:09:43.369Z,8.75
2022-10-19T17:12:10.527Z,9.05
2022-10-19T17:14:39.852Z,8.45
2022-10-19T17:17:06.780Z,7.97
2022-10-19T17:19:34.092Z,6.97
2022-10-19T17:22:02.135Z,11.95
2022-10-19T17:24:29.098Z,9.77
2022-10-19T17:26:55.943Z,11.32
2022-10-19T17:29:23.196Z,13.80
2022-10-19T17:31:49.919Z,9.55
2022-10-19T17:34:16.760Z,8.32
2022-10-19T17:36:46.913Z,12.32
2022-10-19T17:39:20.392Z,9.35
2022-10-19T17:44:16.318Z,8.48
2022-10-19T17:46:42.880Z,12.55
2022-10-19T17:49:10.252Z,10.52
2022-10-19T17:51:37.959Z,11.55
2022-10-19T17:54:10.885Z,12.27
2022-10-19T17:56:38.961Z,11.77
2022-10-19T17:59:07.914Z,12.02
2022-10-19T18:01:35.021Z,12.10
2022-10-19T18:04:01.558Z,10.20
2022-10-19T18:06:33.970Z,11.00
2022-10-19T18:09:02.118Z,12.05
2022-10-19T18:11:32.024Z,10.82
2022-10-19T18:14:00.784Z,13.50
2022-10-19T18:16:37.006Z,10.18
2022-10-19T18:19:04.935Z,14.52
2022-10-19T18:21:34.901Z,12.20
2022-10-19T18:24:02.826Z,10.77
2022-10-19T18:26:31.893Z,10.85
2022-10-19T18:28:59.221Z,9.50
2022-10-19T18:31:29.372Z,11.57
2022-10-19T18:34:05.691Z,10.10
2022-10-19T18:36:33.241Z,11.07
2022-10-19T18:39:01.873Z,10.85
2022-10-19T18:41:29.767Z,11.55
2022-10-19T18:44:05.106Z,12.13
2022-10-19T18:46:36.543Z,11.02
2022-10-19T18:49:05.677Z,9.68
2022-10-19T18:51:32.720Z,13.65
2022-10-19T18:53:59.406Z,10.18
2022-10-19T18:56:26.598Z,10.65
2022-10-19T18:58:53.262Z,12.13
2022-10-19T19:01:26.854Z,11.23
2022-10-19T19:03:56.408Z,10.68
2022-10-19T19:06:30.269Z,10.48
2022-10-19T19:08:59.137Z,9.95
2022-10-19T19:11:34.269Z,11.98
2022-10-19T19:14:11.904Z,10.40
2022-10-19T19:16:39.759Z,10.52
2022-10-19T19:19:07.298Z,9.30
2022-10-19T19:21:35.556Z,11.60
2022-10-19T19:24:05.221Z,10.35
2022-10-19T19:26:34.330Z,10.77
2022-10-19T19:29:00.798Z,11.30
2022-10-19T19:31:27.452Z,11.77
2022-10-19T19:33:54.115Z,9.77
2022-10-19T19:36:20.923Z,9.93
2022-10-19T19:38:49.049Z,9.43
2022-10-19T19:41:16.417Z,12.73
2022-10-19T19:43:43.673Z,10.73
2022-10-19T19:46:16.708Z,11.70
2022-10-19T19:48:46.395Z,9.93
2022-10-19T19:51:15.427Z,11.40
2022-10-19T19:53:42.632Z,11.63
2022-10-19T19:56:11.570Z,10.98
2022-10-19T19:58:38.527Z,10.80
2022-10-19T20:01:13.593Z,9.75
2022-10-19T20:03:41.134Z,15.82
2022-10-19T20:06:08.314Z,9.60
2022-10-19T20:08:36.355Z,8.57
2022-10-19T20:11:05.777Z,9.43
2022-10-19T20:13:32.996Z,8.70
2022-10-19T20:16:02.549Z,11.10
2022-10-19T20:18:29.654Z,10.38
2022-10-19T20:21:01.188Z,9.82
2022-10-19T20:23:28.491Z,11.88
2022-10-19T20:25:56.308Z,14.05
2022-10-19T20:28:24.719Z,11.43
2022-10-19T20:33:32.722Z,11.27
2022-10-19T20:36:13.287Z,14.98
2022-10-19T20:38:40.610Z,11.32
2022-10-19T20:41:09.243Z,10.23
2022-10-19T20:43:37.424Z,10.15
2022-10-19T20:46:24.715Z,11.10
2022-10-19T20:48:52.451Z,9.93
2022-10-19T20:51:30.567Z,13.55
2022-10-19T20:54:00.535Z,9.63
2022-10-19T20:56:30.253Z,9.60
2022-10-19T21:01:31.764Z,13.23
2022-10-19T21:04:01.513Z,9.05
2022-10-19T21:06:30.163Z,11.20
2022-10-19T21:08:58.299Z,11.90
2022-10-19T21:11:27.976Z,9.98
2022-10-19T21:13:56.901Z,13.02
2022-10-19T21:16:27.462Z,10.18
2022-10-19T21:18:54.502Z,13.05
2022-10-19T21:21:24.219Z,10.70
2022-10-19T21:23:53.840Z,11.52
2022-10-19T21:26:20.634Z,9.65
2022-10-19T21:28:49.388Z,8.35
2022-10-19T21:31:17.238Z,8.65
2022-10-19T21:33:44.108Z,8.95
2022-10-19T21:36:12.078Z,10.13
2022-10-19T21:38:39.067Z,8.45
2022-10-19T21:41:08.778Z,10.85
2022-10-19T21:43:35.551Z,10.07
2022-10-19T21:46:07.286Z,8.70
2022-10-19T21:48:34.563Z,9.90
2022-10-19T21:51:10.100Z,8.57
2022-10-19T21:53:36.508Z,8.52
2022-10-19T21:56:02.991Z,11.60
2022-10-19T21:58:29.417Z,9.50
2022-10-19T22:01:04.007Z,10.48
2022-10-19T22:05:56.791Z,8.88
2022-10-19T22:08:23.371Z,9.95
2022-10-19T22:10:49.850Z,9.98
2022-10-19T22:13:16.335Z,10.02
2022-10-19T22:15:42.926Z,10.07
2022-10-19T22:18:09.426Z,10.52
2022-10-19T22:20:36.665Z,9.80
2022-10-19T22:23:04.710Z,11.07
2022-10-19T22:25:32.464Z,10.80
2022-10-19T22:27:59.272Z,10.60
2022-10-19T22:30:25.835Z,10.45
2022-10-19T22:32:52.959Z,13.15
2022-10-19T22:35:19.651Z,9.40
2022-10-19T22:37:46.251Z,10.68
2022-10-19T22:40:13.335Z,13.85
2022-10-19T22:42:39.796Z,10.55
2022-10-19T22:45:06.848Z,9.98
2022-10-19T22:47:33.300Z,9.43
2022-10-19T22:49:59.746Z,12.68
2022-10-19T22:52:26.210Z,12.18
2022-10-19T22:54:52.740Z,13.38
2022-10-19T22:57:19.195Z,11.82
2022-10-19T22:59:45.705Z,11.93
2022-10-19T23:02:12.202Z,9.77
2022-10-19T23:04:38.665Z,10.23
2022-10-19T23:07:05.233Z,10.30
2022-10-19T23:09:31.791Z,11.88
2022-10-19T23:11:58.262Z,11.38
2022-10-19T23:14:24.776Z,9.20
2022-10-19T23:16:51.253Z,10.65
2022-10-19T23:19:17.729Z,10.20
2022-10-19T23:21:44.240Z,10.68
2022-10-19T23:24:10.784Z,13.80
2022-10-19T23:26:37.492Z,13.25
2022-10-19T23:29:03.996Z,9.90
2022-10-19T23:31:31.038Z,9.27
2022-10-19T23:33:57.612Z,11.48
2022-10-19T23:36:27.048Z,12.40
2022-10-19T23:38:55.203Z,10.50
2022-10-19T23:41:22.312Z,9.95
2022-10-19T23:43:49.409Z,9.60
2022-10-19T23:46:16.237Z,9.85
2022-10-19T23:48:42.825Z,9.63
2022-10-19T23:51:18.002Z,10.43
2022-10-19T23:53:46.609Z,11.45
2022-10-19T23:56:18.396Z,10.07
2022-10-19T23:58:45.469Z,11.82
